Time;durP1;ratioP1;P1;durP2;ratioP2;P2;SDS_P1;SDS_P2;PMS_P1;PMS_P2;Temp;Humidity;BMP_temperature;BMP_pressure;BME280_temperature;BME280_humidity;BME280_pressure;Samples;Min_cycle;Max_cycle;Signal;HPM_P1;HPM_P2
2023/03/07 00:00:11;;;;;;;25.77;11.73;;;2.80;99.90;;;;;;5066791;28;20101;-65
2023/03/07 00:02:37;;;;;;;24.40;11.98;;;2.80;99.90;;;;;;5057961;28;20024;-65
2023/03/07 00:05:03;;;;;;;26.75;11.18;;;2.80;99.90;;;;;;5075766;28;20020;-65
2023/03/07 00:07:30;;;;;;;26.70;11.77;;;2.80;99.90;;;;;;5069144;28;20115;-65
2023/03/07 00:09:56;;;;;;;25.10;10.70;;;2.80;99.90;;;;;;5050259;28;20132;-66
2023/03/07 00:12:22;;;;;;;28.80;12.65;;;2.90;99.90;;;;;;5069142;28;20025;-66
2023/03/07 00:14:47;;;;;;;25.85;12.02;;;2.90;99.90;;;;;;5063968;28;20037;-65
2023/03/07 00:17:13;;;;;;;24.55;11.50;;;2.80;99.90;;;;;;5060036;28;20021;-64
2023/03/07 00:19:43;;;;;;;23.23;10.57;;;2.80;99.90;;;;;;5047688;28;20085;-65
2023/03/07 00:22:10;;;;;;;25.25;9.95;;;2.90;99.90;;;;;;5067702;28;20024;-64
2023/03/07 00:24:36;;;;;;;23.73;10.60;;;2.90;99.90;;;;;;5064778;28;20485;-66
2023/03/07 00:27:02;;;;;;;29.00;11.07;;;2.90;99.90;;;;;;5065692;28;20028;-65
2023/03/07 00:29:27;;;;;;;20.17;9.88;;;2.90;99.90;;;;;;5048445;28;20496;-64
2023/03/07 00:31:53;;;;;;;20.00;9.32;;;2.90;99.90;;;;;;5062587;28;20029;-66
2023/03/07 00:34:19;;;;;;;24.88;10.20;;;2.90;99.90;;;;;;5043339;28;20041;-67
2023/03/07 00:36:44;;;;;;;29.80;9.65;;;2.90;99.90;;;;;;5067495;28;20028;-66
2023/03/07 00:39:10;;;;;;;20.02;9.07;;;2.90;99.90;;;;;;5074428;28;20012;-64
2023/03/07 00:41:35;;;;;;;21.92;9.32;;;3.00;99.90;;;;;;5068722;28;20379;-66
2023/03/07 00:44:01;;;;;;;22.52;8.77;;;3.00;99.90;;;;;;5051902;28;20024;-65
2023/03/07 00:46:27;;;;;;;19.10;8.77;;;3.00;99.90;;;;;;5055448;28;20066;-66
2023/03/07 00:48:53;;;;;;;17.55;8.98;;;3.00;99.90;;;;;;5051629;28;20588;-65
2023/03/07 00:51:20;;;;;;;17.23;7.80;;;3.00;99.90;;;;;;5070899;28;20031;-64
2023/03/07 00:53:46;;;;;;;15.50;7.60;;;3.00;99.90;;;;;;5071110;28;20021;-65
2023/03/07 00:56:13;;;;;;;15.77;6.70;;;3.00;99.90;;;;;;5068936;28;20029;-64
2023/03/07 00:58:39;;;;;;;17.58;7.55;;;3.00;99.90;;;;;;5051287;28;20024;-64
2023/03/07 01:01:06;;;;;;;15.35;7.20;;;3.00;99.90;;;;;;5076015;28;20112;-65
2023/03/07 01:03:33;;;;;;;16.48;7.40;;;3.00;99.90;;;;;;5077058;28;20099;-66
2023/03/07 01:06:01;;;;;;;14.27;6.85;;;3.10;99.90;;;;;;5068979;28;21314;-63
2023/03/07 01:08:27;;;;;;;14.65;6.35;;;3.10;99.90;;;;;;5072077;28;20112;-65
2023/03/07 01:10:58;;;;;;;14.32;6.47;;;3.10;99.90;;;;;;5071103;28;20108;-65
2023/03/07 01:13:23;;;;;;;13.25;6.30;;;3.10;99.90;;;;;;5077303;28;20028;-65
2023/03/07 01:15:49;;;;;;;14.48;6.38;;;3.10;99.90;;;;;;5066671;28;20023;-66
2023/03/07 01:18:14;;;;;;;11.15;5.53;;;3.10;99.90;;;;;;5072622;28;20095;-65
2023/03/07 01:20:40;;;;;;;11.63;5.50;;;3.20;99.90;;;;;;5066113;28;20039;-65
2023/03/07 01:23:06;;;;;;;9.68;5.03;;;3.20;99.90;;;;;;5043182;28;20025;-65
2023/03/07 01:25:39;;;;;;;8.80;4.82;;;3.10;99.90;;;;;;5058881;28;20060;-65
2023/03/07 01:28:06;;;;;;;10.20;5.20;;;3.10;99.90;;;;;;5048269;28;20028;-65
2023/03/07 01:30:32;;;;;;;9.75;5.40;;;3.10;99.90;;;;;;5060225;28;20283;-65
2023/03/07 01:33:00;;;;;;;7.57;4.53;;;3.20;99.90;;;;;;5062045;28;20107;-65
2023/03/07 01:35:26;;;;;;;9.77;4.82;;;3.20;99.90;;;;;;5068324;28;20075;-66
2023/03/07 01:37:53;;;;;;;9.45;4.50;;;3.20;99.90;;;;;;5044778;28;20021;-65
2023/03/07 01:40:20;;;;;;;7.65;4.03;;;3.20;99.90;;;;;;5066697;28;20028;-64
2023/03/07 01:42:46;;;;;;;10.43;4.57;;;3.20;99.90;;;;;;5056186;28;20036;-64
2023/03/07 01:45:12;;;;;;;5.72;3.58;;;3.20;99.90;;;;;;5067850;28;20021;-65
2023/03/07 01:47:38;;;;;;;7.43;3.28;;;3.20;99.90;;;;;;5036610;28;20536;-64
2023/03/07 01:50:12;;;;;;;7.88;4.03;;;3.20;99.90;;;;;;5051773;28;20401;-65
2023/03/07 01:52:46;;;;;;;7.95;3.70;;;3.20;99.90;;;;;;5066902;28;20051;-65
2023/03/07 01:55:16;;;;;;;5.50;3.10;;;3.20;99.90;;;;;;5063524;28;20036;-64
2023/03/07 01:57:45;;;;;;;5.05;2.35;;;3.20;99.90;;;;;;5063979;28;20029;-65
2023/03/07 02:00:29;;;;;;;6.78;3.53;;;3.30;99.90;;;;;;5063242;28;20024;-66
2023/03/07 02:03:01;;;;;;;5.28;2.78;;;3.30;99.90;;;;;;5067274;28;20059;-65
2023/03/07 02:05:46;;;;;;;6.07;3.40;;;3.30;99.90;;;;;;5071616;28;20028;-64
2023/03/07 02:08:13;;;;;;;5.32;2.85;;;3.30;99.90;;;;;;5055537;28;20460;-64
2023/03/07 02:10:40;;;;;;;5.30;2.95;;;3.30;99.90;;;;;;5058032;28;20512;-63
2023/03/07 02:13:06;;;;;;;4.82;2.95;;;3.30;99.90;;;;;;5057296;28;20029;-66
2023/03/07 02:15:33;;;;;;;6.88;3.25;;;3.30;99.90;;;;;;5075363;22;20171;-65
2023/03/07 02:17:58;;;;;;;3.83;2.38;;;3.30;99.90;;;;;;5033994;28;20055;-64
2023/03/07 02:20:46;;;;;;;5.60;2.58;;;3.30;99.90;;;;;;5038195;28;20040;-64
2023/03/07 02:23:37;;;;;;;4.30;2.40;;;3.30;99.90;;;;;;5034577;28;20030;-66
2023/03/07 02:26:24;;;;;;;6.05;2.38;;;3.30;99.90;;;;;;5005805;28;20037;-65
2023/03/07 02:28:50;;;;;;;4.55;2.63;;;3.30;99.90;;;;;;5019485;28;20398;-64
2023/03/07 02:31:16;;;;;;;2.97;2.05;;;3.30;99.90;;;;;;5014349;28;20120;-65
2023/03/07 02:33:42;;;;;;;4.43;2.42;;;3.30;99.90;;;;;;5014228;28;20026;-65
2023/03/07 02:36:11;;;;;;;4.63;2.05;;;3.40;99.90;;;;;;5020163;28;20071;-65
2023/03/07 02:38:40;;;;;;;3.28;1.70;;;3.40;99.90;;;;;;5017804;28;20658;-66
2023/03/07 02:41:07;;;;;;;3.95;2.08;;;3.40;99.90;;;;;;5016245;28;20055;-65
2023/03/07 02:43:33;;;;;;;3.85;2.42;;;3.40;99.90;;;;;;5013889;28;20037;-65
2023/03/07 02:45:58;;;;;;;4.90;2.45;;;3.40;99.90;;;;;;5012760;28;20021;-63
2023/03/07 02:48:24;;;;;;;5.45;2.80;;;3.40;99.90;;;;;;4993231;28;20051;-63
2023/03/07 02:50:49;;;;;;;4.88;2.97;;;3.50;99.90;;;;;;5015868;28;20033;-64
2023/03/07 02:53:15;;;;;;;4.53;2.63;;;3.50;99.90;;;;;;5027349;28;20017;-65
2023/03/07 02:55:41;;;;;;;4.15;3.03;;;3.50;99.90;;;;;;5017373;28;20564;-64
2023/03/07 02:58:07;;;;;;;5.32;3.05;;;3.50;99.90;;;;;;5012153;28;20037;-64
2023/03/07 03:00:33;;;;;;;5.03;3.17;;;3.50;99.90;;;;;;5019145;28;20029;-63
2023/03/07 03:02:58;;;;;;;4.35;3.35;;;3.60;99.90;;;;;;5017421;28;20564;-64
2023/03/07 03:05:24;;;;;;;6.65;3.50;;;3.60;99.90;;;;;;5022713;28;20033;-65
2023/03/07 03:07:50;;;;;;;5.57;2.92;;;3.60;99.90;;;;;;5019013;28;20037;-64
2023/03/07 03:10:16;;;;;;;6.63;3.58;;;3.60;99.90;;;;;;5018991;28;20490;-65
2023/03/07 03:12:42;;;;;;;6.85;3.80;;;3.60;99.90;;;;;;5015884;28;20029;-65
2023/03/07 03:15:08;;;;;;;6.45;3.83;;;3.60;99.90;;;;;;5017983;28;20041;-65
2023/03/07 03:17:34;;;;;;;5.47;3.33;;;3.60;99.90;;;;;;5020185;28;20414;-64
2023/03/07 03:19:59;;;;;;;4.70;2.90;;;3.60;99.90;;;;;;5017786;28;20044;-64
2023/03/07 03:22:25;;;;;;;4.15;2.95;;;3.60;99.90;;;;;;5019083;28;20150;-65
2023/03/07 03:24:50;;;;;;;11.40;3.60;;;3.60;99.90;;;;;;5019677;28;20036;-64
2023/03/07 03:27:16;;;;;;;5.35;2.90;;;3.60;99.90;;;;;;5016380;28;20037;-65
2023/03/07 03:29:41;;;;;;;7.65;3.22;;;3.60;99.90;;;;;;5018808;28;20025;-63
2023/03/07 03:32:07;;;;;;;5.40;2.33;;;3.60;99.90;;;;;;5018895;28;20104;-64
2023/03/07 03:34:32;;;;;;;5.47;2.85;;;3.60;99.90;;;;;;5017439;28;20032;-63
2023/03/07 03:36:58;;;;;;;5.70;3.38;;;3.60;99.90;;;;;;5018281;28;20030;-64
2023/03/07 03:39:24;;;;;;;6.88;3.75;;;3.60;99.90;;;;;;5012967;28;20235;-63
2023/03/07 03:41:49;;;;;;;7.00;3.85;;;3.60;99.90;;;;;;5014530;28;20602;-64
2023/03/07 03:44:15;;;;;;;5.30;3.10;;;3.60;99.90;;;;;;5009329;28;20156;-65
2023/03/07 03:46:40;;;;;;;6.05;3.22;;;3.60;99.90;;;;;;5015153;28;20030;-63
2023/03/07 03:49:06;;;;;;;6.28;3.35;;;3.70;99.90;;;;;;4998669;28;20103;-64
2023/03/07 03:51:31;;;;;;;9.27;3.58;;;3.60;99.90;;;;;;5011051;28;20061;-64
2023/03/07 03:53:57;;;;;;;5.68;3.42;;;3.60;99.90;;;;;;5010820;28;21136;-63
2023/03/07 03:56:24;;;;;;;5.55;3.28;;;3.60;99.90;;;;;;5028856;28;20116;-63
2023/03/07 03:58:52;;;;;;;6.72;3.50;;;3.60;99.90;;;;;;5015487;28;20395;-64
2023/03/07 04:01:19;;;;;;;7.53;3.35;;;3.60;99.90;;;;;;5011072;28;20069;-65
2023/03/07 04:03:47;;;;;;;5.38;3.45;;;3.60;99.90;;;;;;5009910;28;20562;-63
2023/03/07 04:06:15;;;;;;;6.40;3.70;;;3.60;99.90;;;;;;5011476;28;20127;-63
2023/03/07 04:08:41;;;;;;;7.85;3.33;;;3.60;99.90;;;;;;5013262;28;20029;-64
2023/03/07 04:11:06;;;;;;;5.93;3.78;;;3.60;99.90;;;;;;5011904;28;20061;-64
2023/03/07 04:13:34;;;;;;;5.72;3.03;;;3.60;99.90;;;;;;5012498;28;20029;-63
2023/03/07 04:15:59;;;;;;;7.38;3.90;;;3.60;99.90;;;;;;5019502;28;20033;-63
2023/03/07 04:18:25;;;;;;;5.97;3.70;;;3.60;99.90;;;;;;5024215;28;20026;-64
2023/03/07 04:20:51;;;;;;;7.35;4.25;;;3.60;99.90;;;;;;5022064;28;20090;-63
2023/03/07 04:23:18;;;;;;;7.13;3.85;;;3.50;99.90;;;;;;5022612;28;20021;-64
2023/03/07 04:25:55;;;;;;;6.80;3.83;;;3.50;99.90;;;;;;5024458;28;20033;-64
2023/03/07 04:28:23;;;;;;;7.20;3.70;;;3.50;99.90;;;;;;5022031;28;20740;-65
2023/03/07 04:30:48;;;;;;;6.72;3.88;;;3.60;99.90;;;;;;5025105;28;20029;-64
2023/03/07 04:33:15;;;;;;;6.25;3.90;;;3.60;99.90;;;;;;5021314;28;20029;-64
2023/03/07 04:35:41;;;;;;;8.25;4.18;;;3.60;99.90;;;;;;5016661;28;20150;-64
2023/03/07 04:38:07;;;;;;;9.77;4.75;;;3.50;99.90;;;;;;5018482;28;20730;-63
2023/03/07 04:40:33;;;;;;;7.85;4.32;;;3.50;99.90;;;;;;5014362;28;20120;-63
2023/03/07 04:42:59;;;;;;;6.15;3.70;;;3.50;99.90;;;;;;5029407;28;20042;-63
2023/03/07 04:45:24;;;;;;;7.85;4.03;;;3.50;99.90;;;;;;5014611;28;20041;-64
2023/03/07 04:47:50;;;;;;;7.97;4.13;;;3.50;99.90;;;;;;5015213;28;20025;-63
2023/03/07 04:50:19;;;;;;;8.63;4.57;;;3.50;99.90;;;;;;4991875;28;20050;-63
2023/03/07 04:52:45;;;;;;;7.93;3.70;;;3.50;99.90;;;;;;5014867;28;20030;-63
2023/03/07 04:55:11;;;;;;;9.90;4.88;;;3.50;99.90;;;;;;5012968;28;20036;-63
2023/03/07 04:57:37;;;;;;;6.97;4.43;;;3.50;99.90;;;;;;5019022;28;20029;-62
2023/03/07 05:00:08;;;;;;;7.32;4.20;;;3.50;99.90;;;;;;5015405;28;20082;-63
2023/03/07 05:02:34;;;;;;;7.57;4.53;;;3.50;99.90;;;;;;5016021;28;20044;-64
2023/03/07 05:04:59;;;;;;;7.60;4.15;;;3.50;99.90;;;;;;5013773;28;20049;-64
2023/03/07 05:07:25;;;;;;;7.30;4.25;;;3.50;99.90;;;;;;5014370;28;20586;-63
2023/03/07 05:09:50;;;;;;;7.95;4.88;;;3.60;99.90;;;;;;5017476;28;20043;-64
2023/03/07 05:12:16;;;;;;;8.85;4.95;;;3.60;99.90;;;;;;5014217;28;20033;-63
2023/03/07 05:14:41;;;;;;;8.77;4.95;;;3.50;99.90;;;;;;5017283;28;20026;-64
2023/03/07 05:17:08;;;;;;;10.02;5.63;;;3.60;99.90;;;;;;5020121;28;20041;-65
2023/03/07 05:19:33;;;;;;;9.60;4.78;;;3.60;99.90;;;;;;5022469;28;20034;-63
2023/03/07 05:21:59;;;;;;;11.00;5.15;;;3.50;99.90;;;;;;5018859;28;22010;-63
2023/03/07 05:24:25;;;;;;;11.27;6.05;;;3.50;99.90;;;;;;5023784;28;20026;-63
2023/03/07 05:26:50;;;;;;;11.30;5.60;;;3.50;99.90;;;;;;5020271;28;20582;-64
2023/03/07 05:29:16;;;;;;;10.82;4.90;;;3.50;99.90;;;;;;5021264;28;20494;-64
2023/03/07 05:31:41;;;;;;;14.52;5.53;;;3.50;99.90;;;;;;5019334;28;20038;-64
2023/03/07 05:34:09;;;;;;;11.63;6.00;;;3.50;99.90;;;;;;5016059;28;20034;-63
2023/03/07 05:36:35;;;;;;;10.30;5.65;;;3.50;99.90;;;;;;5023959;28;20048;-63
2023/03/07 05:39:01;;;;;;;11.18;5.30;;;3.50;99.90;;;;;;5019305;28;20483;-64
2023/03/07 05:41:26;;;;;;;10.75;5.45;;;3.50;99.90;;;;;;5020507;28;20037;-63
2023/03/07 05:43:54;;;;;;;10.07;5.70;;;3.50;99.90;;;;;;5020034;28;20025;-64
2023/03/07 05:46:20;;;;;;;9.95;5.45;;;3.50;99.90;;;;;;5017512;28;20103;-64
2023/03/07 05:48:46;;;;;;;10.82;6.10;;;3.50;99.90;;;;;;5017627;28;20041;-63
2023/03/07 05:51:11;;;;;;;11.10;6.10;;;3.50;99.90;;;;;;4996018;28;20041;-65
2023/03/07 05:53:37;;;;;;;13.70;6.85;;;3.50;99.90;;;;;;5022224;28;20029;-65
2023/03/07 05:56:03;;;;;;;16.23;7.10;;;3.50;99.90;;;;;;5017191;28;20029;-63
2023/03/07 05:58:28;;;;;;;14.80;6.97;;;3.50;99.90;;;;;;5017355;28;20068;-64
2023/03/07 06:00:54;;;;;;;12.45;6.82;;;3.50;99.90;;;;;;5017940;28;20105;-63
2023/03/07 06:03:19;;;;;;;12.93;7.53;;;3.50;99.90;;;;;;5015651;28;20111;-64
2023/03/07 06:05:49;;;;;;;12.70;6.50;;;3.50;99.90;;;;;;5021369;28;20026;-63
2023/03/07 06:08:14;;;;;;;12.88;6.63;;;3.50;99.90;;;;;;5017118;28;20131;-65
2023/03/07 06:10:41;;;;;;;11.77;5.80;;;3.50;99.90;;;;;;5016633;28;20771;-65
2023/03/07 06:13:14;;;;;;;12.32;6.70;;;3.50;99.90;;;;;;5016464;28;20040;-63
2023/03/07 06:15:40;;;;;;;12.88;6.82;;;3.50;99.90;;;;;;5020287;28;20033;-64
2023/03/07 06:18:05;;;;;;;11.93;6.90;;;3.50;99.90;;;;;;5021919;28;20041;-64
2023/03/07 06:20:31;;;;;;;14.18;7.43;;;3.50;99.90;;;;;;5021731;28;20029;-65
2023/03/07 06:22:56;;;;;;;12.73;6.93;;;3.50;99.90;;;;;;5016160;28;20037;-63
2023/03/07 06:25:22;;;;;;;13.50;6.78;;;3.50;99.90;;;;;;5016149;28;20037;-64
2023/03/07 06:27:48;;;;;;;12.57;7.13;;;3.50;99.90;;;;;;5018603;28;20044;-65
2023/03/07 06:30:14;;;;;;;17.35;7.93;;;3.50;99.90;;;;;;5023410;28;20513;-63
2023/03/07 06:32:39;;;;;;;14.43;7.03;;;3.50;99.90;;;;;;5028960;28;20038;-63
2023/03/07 06:35:05;;;;;;;14.13;7.93;;;3.60;99.90;;;;;;5032223;28;20927;-64
2023/03/07 06:37:31;;;;;;;12.80;7.25;;;3.60;99.90;;;;;;5019725;28;20039;-63
2023/03/07 06:39:56;;;;;;;16.77;8.05;;;3.60;99.90;;;;;;5017834;28;20056;-64
2023/03/07 06:42:22;;;;;;;13.27;6.97;;;3.60;99.90;;;;;;5018481;28;20045;-64
2023/03/07 06:44:48;;;;;;;17.58;7.18;;;3.60;99.90;;;;;;5016440;28;20553;-65
2023/03/07 06:47:13;;;;;;;13.07;7.07;;;3.60;99.90;;;;;;5027314;28;20025;-64
2023/03/07 06:49:39;;;;;;;14.25;7.00;;;3.70;99.90;;;;;;5030436;28;20029;-64
2023/03/07 06:52:04;;;;;;;14.35;7.95;;;3.70;99.90;;;;;;5008308;28;20960;-65
2023/03/07 06:54:30;;;;;;;20.98;8.07;;;3.70;99.90;;;;;;5026623;28;20029;-63
2023/03/07 06:56:56;;;;;;;13.77;7.15;;;3.70;99.90;;;;;;5024035;28;20035;-64
2023/03/07 06:59:21;;;;;;;17.08;7.72;;;3.70;99.90;;;;;;5026797;28;20039;-64
2023/03/07 07:01:47;;;;;;;16.10;8.10;;;3.70;99.90;;;;;;5027951;28;20120;-64
2023/03/07 07:04:13;;;;;;;12.88;7.53;;;3.70;99.90;;;;;;5030667;28;20092;-65
2023/03/07 07:06:38;;;;;;;17.15;7.13;;;3.70;99.90;;;;;;5026539;28;20057;-64
2023/03/07 07:09:04;;;;;;;13.77;6.45;;;3.80;99.90;;;;;;5029100;28;20025;-66
2023/03/07 07:11:30;;;;;;;14.15;7.20;;;3.80;99.90;;;;;;5029824;28;20056;-63
2023/03/07 07:13:56;;;;;;;19.38;7.35;;;3.80;99.90;;;;;;5028076;28;20487;-64
2023/03/07 07:16:22;;;;;;;11.40;6.35;;;3.90;99.90;;;;;;5044546;28;20030;-63
2023/03/07 07:18:50;;;;;;;14.30;6.78;;;3.90;99.90;;;;;;5028796;28;20152;-63
2023/03/07 07:21:16;;;;;;;13.40;6.57;;;4.00;99.90;;;;;;5020644;28;20031;-64
2023/03/07 07:23:42;;;;;;;10.25;6.15;;;4.00;99.90;;;;;;5045202;28;20236;-64
2023/03/07 07:26:08;;;;;;;10.73;6.93;;;4.00;99.90;;;;;;5029476;28;20033;-64
2023/03/07 07:28:34;;;;;;;10.85;5.43;;;4.10;99.90;;;;;;5027421;28;20064;-64
2023/03/07 07:30:59;;;;;;;12.50;6.88;;;4.20;99.90;;;;;;5027372;28;20034;-65
2023/03/07 07:33:25;;;;;;;14.02;6.95;;;4.20;99.90;;;;;;5039421;28;20025;-63
2023/03/07 07:35:50;;;;;;;21.90;10.88;;;4.20;99.90;;;;;;5027130;28;20023;-64
2023/03/07 07:38:16;;;;;;;19.05;7.25;;;4.20;99.90;;;;;;5028640;28;20025;-65
2023/03/07 07:40:42;;;;;;;40.80;14.63;;;4.20;99.90;;;;;;5029989;28;20487;-64
2023/03/07 07:43:13;;;;;;;12.27;5.88;;;4.20;99.90;;;;;;5027729;28;20037;-64
2023/03/07 07:45:39;;;;;;;12.05;6.18;;;4.30;99.90;;;;;;5029124;28;20040;-65
2023/03/07 07:48:04;;;;;;;11.93;5.78;;;4.20;99.90;;;;;;5027806;28;20033;-65
2023/03/07 07:50:30;;;;;;;10.73;5.75;;;4.20;99.90;;;;;;5033125;28;20071;-64
2023/03/07 07:52:55;;;;;;;13.05;5.28;;;4.30;99.90;;;;;;5011358;28;20495;-64
2023/03/07 07:55:21;;;;;;;9.82;5.80;;;4.30;99.90;;;;;;5032753;28;20055;-65
2023/03/07 07:57:47;;;;;;;10.85;6.13;;;4.30;99.90;;;;;;5030778;28;20144;-63
2023/03/07 08:00:18;;;;;;;10.75;6.07;;;4.20;99.90;;;;;;5031136;28;20021;-64
2023/03/07 08:02:43;;;;;;;11.85;5.53;;;4.30;99.90;;;;;;5033761;28;20028;-65
2023/03/07 08:05:09;;;;;;;10.93;5.85;;;4.30;99.90;;;;;;5032381;28;20399;-63
2023/03/07 08:07:35;;;;;;;10.80;5.35;;;4.30;99.90;;;;;;5032268;28;20403;-65
2023/03/07 08:10:01;;;;;;;9.18;4.95;;;4.30;99.90;;;;;;5033983;28;20026;-64
2023/03/07 08:12:26;;;;;;;10.38;5.82;;;4.40;99.90;;;;;;5032937;28;20028;-64
2023/03/07 08:14:52;;;;;;;11.63;6.07;;;4.30;99.90;;;;;;5044435;28;20668;-62
2023/03/07 08:17:17;;;;;;;11.15;5.60;;;4.40;99.90;;;;;;5051654;28;20037;-64
2023/03/07 08:19:43;;;;;;;8.55;5.03;;;4.30;99.90;;;;;;5034055;28;20017;-63
2023/03/07 08:22:09;;;;;;;9.68;4.95;;;4.40;99.90;;;;;;5026604;28;20080;-64
2023/03/07 08:24:35;;;;;;;11.10;5.70;;;4.40;99.90;;;;;;5031742;28;20025;-64
2023/03/07 08:27:00;;;;;;;14.00;5.25;;;4.40;99.90;;;;;;5031621;28;20022;-64
2023/03/07 08:29:27;;;;;;;12.90;5.90;;;4.40;99.90;;;;;;5030579;28;20502;-64
2023/03/07 08:31:53;;;;;;;7.85;4.43;;;4.40;99.90;;;;;;5048149;28;20030;-65
2023/03/07 08:34:19;;;;;;;10.13;5.00;;;4.40;99.90;;;;;;5032214;28;20454;-64
2023/03/07 08:36:45;;;;;;;11.98;4.80;;;4.40;99.90;;;;;;5033309;28;20390;-65
2023/03/07 08:39:11;;;;;;;10.15;4.97;;;4.40;99.90;;;;;;5028231;28;20022;-63
2023/03/07 08:41:37;;;;;;;9.45;4.90;;;4.40;99.90;;;;;;5047493;28;20029;-64
2023/03/07 08:44:03;;;;;;;8.20;4.50;;;4.50;99.90;;;;;;5031172;28;20030;-64
2023/03/07 08:46:28;;;;;;;10.25;5.55;;;4.50;99.90;;;;;;5033234;28;20502;-64
2023/03/07 08:48:54;;;;;;;9.52;4.93;;;4.40;99.90;;;;;;5028555;28;20037;-63
2023/03/07 08:51:19;;;;;;;7.32;3.85;;;4.50;99.90;;;;;;5026353;28;20029;-64
2023/03/07 08:53:45;;;;;;;10.65;4.97;;;4.50;99.90;;;;;;5030537;28;20127;-64
2023/03/07 08:56:14;;;;;;;10.27;5.80;;;4.50;99.90;;;;;;5030185;28;20025;-65
2023/03/07 08:58:40;;;;;;;9.43;5.15;;;4.60;99.90;;;;;;5029582;28;20017;-64
2023/03/07 09:01:07;;;;;;;10.15;4.88;;;4.60;99.90;;;;;;5031579;28;20022;-65
2023/03/07 09:03:33;;;;;;;8.82;5.15;;;4.70;99.90;;;;;;5032506;28;20029;-65
2023/03/07 09:06:00;;;;;;;7.70;4.20;;;4.70;99.90;;;;;;5041440;28;20033;-64
2023/03/07 09:08:25;;;;;;;8.43;4.38;;;4.70;99.90;;;;;;5031382;28;20044;-65
2023/03/07 09:10:51;;;;;;;7.78;4.32;;;4.80;99.90;;;;;;5033539;28;20490;-65
2023/03/07 09:13:17;;;;;;;8.88;4.20;;;4.90;99.90;;;;;;5030235;28;20022;-65
2023/03/07 09:15:43;;;;;;;7.18;3.80;;;4.90;99.90;;;;;;5032521;28;20037;-64
2023/03/07 09:18:09;;;;;;;7.13;3.75;;;4.90;99.90;;;;;;5048043;28;20105;-65
2023/03/07 09:20:37;;;;;;;10.77;4.78;;;4.80;99.90;;;;;;5046498;28;20112;-63
2023/03/07 09:23:03;;;;;;;10.25;4.78;;;4.80;99.90;;;;;;5032052;28;20453;-65
2023/03/07 09:25:29;;;;;;;7.90;4.53;;;4.90;99.90;;;;;;5029539;28;20060;-65
2023/03/07 09:27:55;;;;;;;10.65;4.43;;;4.80;99.90;;;;;;5027790;28;20068;-64
2023/03/07 09:30:21;;;;;;;9.05;3.88;;;4.90;99.90;;;;;;5030935;28;20030;-64
2023/03/07 09:32:48;;;;;;;8.45;4.20;;;4.90;99.90;;;;;;5046836;28;20029;-64
2023/03/07 09:35:14;;;;;;;7.63;3.70;;;5.00;99.90;;;;;;5032351;28;20033;-65
2023/03/07 09:37:39;;;;;;;5.45;3.17;;;5.10;99.90;;;;;;5047816;28;20026;-65
2023/03/07 09:40:06;;;;;;;8.05;4.57;;;5.00;99.90;;;;;;5031286;28;20064;-64
2023/03/07 09:42:37;;;;;;;7.45;3.97;;;5.10;99.90;;;;;;5030024;28;20040;-65
2023/03/07 09:45:08;;;;;;;9.70;3.72;;;5.10;99.90;;;;;;5029790;28;20025;-65
2023/03/07 09:47:56;;;;;;;6.78;3.55;;;5.20;99.90;;;;;;5046845;28;20479;-64
2023/03/07 09:50:33;;;;;;;7.13;3.92;;;5.20;99.90;;;;;;5041599;28;20410;-65
2023/03/07 09:53:02;;;;;;;7.65;3.63;;;5.10;99.90;;;;;;5006114;28;20605;-65
2023/03/07 09:55:29;;;;;;;7.75;3.90;;;5.20;99.90;;;;;;5028104;28;20039;-63
2023/03/07 09:58:05;;;;;;;6.50;3.83;;;5.10;99.90;;;;;;5029426;28;20079;-65
2023/03/07 10:00:33;;;;;;;7.15;3.70;;;5.10;99.90;;;;;;5024319;28;20025;-65
2023/03/07 10:03:31;;;;;;;6.35;3.25;;;5.00;99.90;;;;;;5046778;28;20029;-64
2023/03/07 10:06:06;;;;;;;6.60;3.58;;;5.10;99.90;;;;;;5030105;28;20156;-65
2023/03/07 10:08:33;;;;;;;8.20;4.20;;;5.10;99.90;;;;;;5030875;28;20099;-65
2023/03/07 10:11:07;;;;;;;8.27;4.80;;;5.10;99.90;;;;;;5029703;28;20034;-64
2023/03/07 10:14:01;;;;;;;7.22;3.72;;;5.20;99.90;;;;;;5026736;28;20403;-64
2023/03/07 10:16:44;;;;;;;8.60;3.25;;;5.20;99.90;;;;;;5026667;28;20089;-64
2023/03/07 10:19:26;;;;;;;6.50;3.67;;;5.20;99.90;;;;;;5029621;28;20032;-65
2023/03/07 10:21:55;;;;;;;6.07;3.38;;;5.20;99.90;;;;;;5024772;28;20075;-65
2023/03/07 10:24:49;;;;;;;8.23;3.70;;;5.20;99.90;;;;;;5033451;28;20029;-64
2023/03/07 10:27:15;;;;;;;5.88;3.35;;;5.20;99.90;;;;;;5028374;28;20466;-64
2023/03/07 10:29:46;;;;;;;7.55;3.55;;;5.10;99.90;;;;;;5027481;28;20037;-64
2023/03/07 10:32:30;;;;;;;9.52;3.65;;;5.20;99.90;;;;;;5025432;28;20490;-64
2023/03/07 10:35:01;;;;;;;6.70;3.10;;;5.30;99.90;;;;;;5031028;28;20033;-64
2023/03/07 10:37:45;;;;;;;8.32;3.95;;;5.40;99.90;;;;;;5037304;28;20511;-65
2023/03/07 10:40:25;;;;;;;17.70;4.47;;;5.30;99.90;;;;;;5026776;28;20439;-64
2023/03/07 10:42:52;;;;;;;6.38;4.00;;;5.40;99.90;;;;;;5030040;28;20029;-65
2023/03/07 10:45:18;;;;;;;5.05;2.92;;;5.30;99.90;;;;;;5026935;28;20914;-64
2023/03/07 10:47:44;;;;;;;5.18;3.60;;;5.20;99.90;;;;;;5025815;28;20104;-64
2023/03/07 10:50:23;;;;;;;5.82;3.30;;;5.20;99.90;;;;;;5027997;28;20033;-65
2023/03/07 10:52:52;;;;;;;3.80;2.67;;;5.10;99.90;;;;;;5005547;28;20172;-64
2023/03/07 10:55:33;;;;;;;6.38;3.50;;;5.10;99.90;;;;;;5026122;28;20026;-64
2023/03/07 10:58:11;;;;;;;5.63;3.25;;;5.00;99.90;;;;;;5024026;28;20478;-64
2023/03/07 11:00:37;;;;;;;3.97;2.58;;;5.00;99.90;;;;;;5025242;28;20105;-65
2023/03/07 11:03:03;;;;;;;5.68;3.30;;;4.90;99.90;;;;;;5030028;28;20763;-65
2023/03/07 11:05:32;;;;;;;4.53;2.90;;;4.90;99.90;;;;;;5029166;28;20105;-64
2023/03/07 11:07:59;;;;;;;4.95;3.00;;;5.00;99.90;;;;;;5030310;28;20032;-65
2023/03/07 11:10:35;;;;;;;4.95;2.85;;;5.00;99.90;;;;;;5026814;28;20026;-64
2023/03/07 11:13:15;;;;;;;6.35;3.08;;;5.20;99.90;;;;;;5042289;28;20021;-64
2023/03/07 11:15:41;;;;;;;6.45;3.45;;;5.30;99.90;;;;;;5023779;28;20056;-65
2023/03/07 11:18:37;;;;;;;4.45;2.88;;;5.30;99.90;;;;;;5044590;28;20095;-66
2023/03/07 11:21:03;;;;;;;9.82;4.15;;;5.40;99.90;;;;;;5003245;28;20633;-65
2023/03/07 11:23:30;;;;;;;10.70;5.70;;;5.40;99.90;;;;;;5026847;28;20039;-65
2023/03/07 11:26:16;;;;;;;13.93;6.07;;;5.40;99.90;;;;;;5029599;28;20041;-61
2023/03/07 11:28:42;;;;;;;19.45;9.60;;;5.40;99.90;;;;;;5020855;28;20522;-64
2023/03/07 11:31:24;;;;;;;15.50;7.82;;;5.40;99.90;;;;;;5042607;28;20026;-66
2023/03/07 11:33:57;;;;;;;30.27;13.55;;;5.40;99.90;;;;;;5024371;28;20025;-65
2023/03/07 11:36:25;;;;;;;12.93;8.50;;;5.40;99.90;;;;;;5030434;28;20022;-65
2023/03/07 11:39:04;;;;;;;6.30;3.80;;;5.40;99.90;;;;;;5029098;28;20021;-65
2023/03/07 11:41:31;;;;;;;6.15;3.22;;;5.30;99.90;;;;;;5026369;28;20426;-65
2023/03/07 11:44:34;;;;;;;5.18;3.00;;;5.30;99.90;;;;;;5023348;28;20025;-64
2023/03/07 11:47:29;;;;;;;5.68;3.13;;;5.30;99.90;;;;;;5026760;28;20482;-65
2023/03/07 11:50:00;;;;;;;4.85;2.63;;;5.30;99.90;;;;;;5022151;28;20376;-64
2023/03/07 11:52:55;;;;;;;9.38;3.38;;;5.40;99.90;;;;;;5021670;28;20044;-65
2023/03/07 11:55:48;;;;;;;12.85;3.78;;;5.30;99.90;;;;;;5023312;28;20053;-65
2023/03/07 11:58:44;;;;;;;26.98;9.80;;;5.30;99.90;;;;;;5026244;28;20018;-65
2023/03/07 12:01:15;;;;;;;18.27;6.63;;;5.30;99.90;;;;;;5024516;28;20030;-64
2023/03/07 12:03:59;;;;;;;11.35;4.75;;;5.30;99.90;;;;;;5026661;28;20025;-65
2023/03/07 12:06:43;;;;;;;36.15;13.68;;;5.30;99.90;;;;;;5041141;28;20045;-64
2023/03/07 12:09:28;;;;;;;42.85;15.55;;;5.20;99.90;;;;;;5039500;28;20034;-65
2023/03/07 12:12:13;;;;;;;58.03;19.17;;;5.20;99.90;;;;;;5026795;28;20505;-64
2023/03/07 12:14:57;;;;;;;;;;;5.20;99.90;;;;;;5027083;28;20438;-63
2023/03/07 12:18:06;;;;;;;24.45;9.23;;;5.20;99.90;;;;;;5023998;28;19920;-65
2023/03/07 12:20:39;;;;;;;7.43;4.07;;;5.20;99.90;;;;;;5026564;28;20033;-64
2023/03/07 12:23:26;;;;;;;6.75;3.80;;;5.30;99.90;;;;;;5029277;28;20037;-64
2023/03/07 12:25:56;;;;;;;8.02;4.15;;;5.30;99.90;;;;;;5025212;28;20025;-64
2023/03/07 12:28:46;;;;;;;6.55;4.10;;;5.20;99.90;;;;;;5027344;28;20041;-64
2023/03/07 12:31:24;;;;;;;6.40;3.85;;;5.20;99.90;;;;;;5025056;28;20033;-65
2023/03/07 12:34:29;;;;;;;9.45;4.82;;;5.20;99.90;;;;;;5023631;28;20022;-65
2023/03/07 12:37:05;;;;;;;5.78;3.47;;;5.30;99.90;;;;;;5029787;28;20549;-65
2023/03/07 12:39:51;;;;;;;9.52;4.25;;;5.30;99.90;;;;;;5030371;28;20036;-64
2023/03/07 12:42:30;;;;;;;8.18;4.05;;;5.30;99.90;;;;;;5023726;28;20426;-64
2023/03/07 12:45:15;;;;;;;11.50;4.20;;;5.30;99.90;;;;;;5029375;28;20263;-64
2023/03/07 12:48:00;;;;;;;6.25;3.67;;;5.30;99.90;;;;;;5027150;28;20025;-65
2023/03/07 12:50:45;;;;;;;9.68;4.28;;;5.30;99.90;;;;;;5028551;28;20479;-65
2023/03/07 12:53:37;;;;;;;8.27;4.25;;;5.30;99.90;;;;;;5007999;28;20466;-65
2023/03/07 12:56:21;;;;;;;8.35;4.55;;;5.30;99.90;;;;;;5032328;28;20053;-63
2023/03/07 12:59:10;;;;;;;11.07;5.85;;;5.20;99.90;;;;;;5028369;28;20025;-65
2023/03/07 13:01:59;;;;;;;8.65;5.53;;;5.30;99.90;;;;;;5045458;28;20037;-65
2023/03/07 13:04:36;;;;;;;8.55;5.13;;;5.30;99.90;;;;;;5024496;28;20041;-65